<?xml version="1.0" encoding="UTF-8" standalone="no" ?>
<gpx xmlns="http://www.topografix.com/GPX/1/1" xmlns:xsi="http://www.w3.org/2001/XMLSchema-instance" xsi:schemaLocation="http://www.topografix.com/GPX/1/1 http://www.topografix.com/GPX/1/1/gpx.xsd" version="1.1" creator="VisuGPX - https://www.visugpx.com">
  <metadata>
    <name>Au tour du Donon</name>
    <desc><![CDATA[Export from GpsPrune]]></desc>
  </metadata>
  <trk>
    <name><![CDATA[GpsPruneTrack]]></name>
    <trkseg>
      <trkpt lat="48.49828" lon="7.16071">
        <ele>608.2</ele>
        <time>2021-01-10T10:32:14Z</time>
      </trkpt>
      <trkpt lat="48.49838" lon="7.16066">
        <ele>608.388</ele>
        <time>2021-01-10T10:36:23Z</time>
      </trkpt>
      <trkpt lat="48.49808" lon="7.16074">
        <ele>606.682</ele>
        <time>2021-01-10T10:38:24Z</time>
      </trkpt>
      <trkpt lat="48.49786" lon="7.16076">
        <ele>604.321</ele>
        <time>2021-01-10T10:38:40Z</time>
      </trkpt>
      <trkpt lat="48.49761" lon="7.16083">
        <ele>601.822</ele>
        <time>2021-01-10T10:38:56Z</time>
      </trkpt>
      <trkpt lat="48.49752" lon="7.16089">
        <ele>601.171</ele>
        <time>2021-01-10T10:39:11Z</time>
      </trkpt>
      <trkpt lat="48.49736" lon="7.16094">
        <ele>598.492</ele>
        <time>2021-01-10T10:39:26Z</time>
      </trkpt>
      <trkpt lat="48.49718" lon="7.16099">
        <ele>595.168</ele>
        <time>2021-01-10T10:39:41Z</time>
      </trkpt>
      <trkpt lat="48.49712" lon="7.16118">
        <ele>596.596</ele>
        <time>2021-01-10T10:39:57Z</time>
      </trkpt>
      <trkpt lat="48.49699" lon="7.16149">
        <ele>597.183</ele>
        <time>2021-01-10T10:40:12Z</time>
      </trkpt>
      <trkpt lat="48.49695" lon="7.16175">
        <ele>599.012</ele>
        <time>2021-01-10T10:40:28Z</time>
      </trkpt>
      <trkpt lat="48.49686" lon="7.162">
        <ele>598.437</ele>
        <time>2021-01-10T10:40:44Z</time>
      </trkpt>
      <trkpt lat="48.49681" lon="7.16224">
        <ele>598.665</ele>
        <time>2021-01-10T10:40:59Z</time>
      </trkpt>
      <trkpt lat="48.49677" lon="7.16246">
        <ele>599.422</ele>
        <time>2021-01-10T10:41:14Z</time>
      </trkpt>
      <trkpt lat="48.49675" lon="7.16268">
        <ele>600.243</ele>
        <time>2021-01-10T10:41:30Z</time>
      </trkpt>
      <trkpt lat="48.49674" lon="7.16284">
        <ele>601.075</ele>
        <time>2021-01-10T10:41:49Z</time>
      </trkpt>
      <trkpt lat="48.49672" lon="7.16309">
        <ele>602.126</ele>
        <time>2021-01-10T10:42:04Z</time>
      </trkpt>
      <trkpt lat="48.49669" lon="7.16347">
        <ele>603.832</ele>
        <time>2021-01-10T10:42:21Z</time>
      </trkpt>
      <trkpt lat="48.49667" lon="7.16371">
        <ele>604.681</ele>
        <time>2021-01-10T10:42:38Z</time>
      </trkpt>
      <trkpt lat="48.49666" lon="7.16409">
        <ele>604.673</ele>
        <time>2021-01-10T10:42:53Z</time>
      </trkpt>
      <trkpt lat="48.49669" lon="7.16437">
        <ele>606.631</ele>
        <time>2021-01-10T10:43:09Z</time>
      </trkpt>
      <trkpt lat="48.49671" lon="7.16451">
        <ele>607.792</ele>
        <time>2021-01-10T10:43:26Z</time>
      </trkpt>
      <trkpt lat="48.49678" lon="7.1648">
        <ele>611.033</ele>
        <time>2021-01-10T10:43:42Z</time>
      </trkpt>
      <trkpt lat="48.49684" lon="7.16503">
        <ele>612.454</ele>
        <time>2021-01-10T10:43:58Z</time>
      </trkpt>
      <trkpt lat="48.4969" lon="7.16524">
        <ele>614.227</ele>
        <time>2021-01-10T10:44:15Z</time>
      </trkpt>
      <trkpt lat="48.49695" lon="7.16546">
        <ele>615.46</ele>
        <time>2021-01-10T10:44:31Z</time>
      </trkpt>
      <trkpt lat="48.49702" lon="7.16571">
        <ele>617.621</ele>
        <time>2021-01-10T10:44:47Z</time>
      </trkpt>
      <trkpt lat="48.49706" lon="7.16586">
        <ele>618.409</ele>
        <time>2021-01-10T10:45:12Z</time>
      </trkpt>
      <trkpt lat="48.49715" lon="7.16614">
        <ele>619.882</ele>
        <time>2021-01-10T10:45:28Z</time>
      </trkpt>
      <trkpt lat="48.49719" lon="7.16636">
        <ele>619.435</ele>
        <time>2021-01-10T10:45:44Z</time>
      </trkpt>
      <trkpt lat="48.49725" lon="7.16661">
        <ele>620.117</ele>
        <time>2021-01-10T10:46:00Z</time>
      </trkpt>
      <trkpt lat="48.49733" lon="7.16679">
        <ele>621.361</ele>
        <time>2021-01-10T10:46:15Z</time>
      </trkpt>
      <trkpt lat="48.49748" lon="7.16692">
        <ele>626.33</ele>
        <time>2021-01-10T10:46:31Z</time>
      </trkpt>
      <trkpt lat="48.49758" lon="7.16704">
        <ele>628.823</ele>
        <time>2021-01-10T10:46:46Z</time>
      </trkpt>
      <trkpt lat="48.49767" lon="7.16722">
        <ele>629.946</ele>
        <time>2021-01-10T10:47:02Z</time>
      </trkpt>
      <trkpt lat="48.49779" lon="7.16741">
        <ele>633.017</ele>
        <time>2021-01-10T10:47:18Z</time>
      </trkpt>
      <trkpt lat="48.49789" lon="7.16759">
        <ele>634.206</ele>
        <time>2021-01-10T10:47:34Z</time>
      </trkpt>
      <trkpt lat="48.49798" lon="7.16777">
        <ele>635.578</ele>
        <time>2021-01-10T10:47:49Z</time>
      </trkpt>
      <trkpt lat="48.49805" lon="7.168">
        <ele>634.572</ele>
        <time>2021-01-10T10:48:05Z</time>
      </trkpt>
      <trkpt lat="48.49813" lon="7.16818">
        <ele>634.239</ele>
        <time>2021-01-10T10:48:21Z</time>
      </trkpt>
      <trkpt lat="48.49821" lon="7.16835">
        <ele>633.613</ele>
        <time>2021-01-10T10:48:36Z</time>
      </trkpt>
      <trkpt lat="48.49835" lon="7.16846">
        <ele>636.02</ele>
        <time>2021-01-10T10:48:52Z</time>
      </trkpt>
      <trkpt lat="48.49844" lon="7.16858">
        <ele>635.63</ele>
        <time>2021-01-10T10:49:08Z</time>
      </trkpt>
      <trkpt lat="48.49858" lon="7.16867">
        <ele>638.075</ele>
        <time>2021-01-10T10:49:24Z</time>
      </trkpt>
      <trkpt lat="48.50034" lon="7.16941">
        <ele>660.685</ele>
        <time>2021-01-10T10:55:25Z</time>
      </trkpt>
      <trkpt lat="48.50041" lon="7.1695">
        <ele>660.519</ele>
        <time>2021-01-10T10:55:40Z</time>
      </trkpt>
      <trkpt lat="48.50054" lon="7.16955">
        <ele>662.536</ele>
        <time>2021-01-10T10:55:56Z</time>
      </trkpt>
      <trkpt lat="48.50063" lon="7.16956">
        <ele>664.148</ele>
        <time>2021-01-10T10:57:42Z</time>
      </trkpt>
      <trkpt lat="48.50078" lon="7.16959">
        <ele>666.218</ele>
        <time>2021-01-10T10:57:59Z</time>
      </trkpt>
      <trkpt lat="48.50087" lon="7.16963">
        <ele>666.968</ele>
        <time>2021-01-10T10:58:18Z</time>
      </trkpt>
      <trkpt lat="48.50097" lon="7.16966">
        <ele>667.468</ele>
        <time>2021-01-10T10:59:57Z</time>
      </trkpt>
      <trkpt lat="48.50107" lon="7.16973">
        <ele>667.188</ele>
        <time>2021-01-10T11:00:12Z</time>
      </trkpt>
      <trkpt lat="48.5012" lon="7.16977">
        <ele>668.395</ele>
        <time>2021-01-10T11:00:28Z</time>
      </trkpt>
      <trkpt lat="48.50136" lon="7.16974">
        <ele>671.91</ele>
        <time>2021-01-10T11:01:11Z</time>
      </trkpt>
      <trkpt lat="48.50145" lon="7.16972">
        <ele>674.772</ele>
        <time>2021-01-10T11:01:27Z</time>
      </trkpt>
      <trkpt lat="48.50172" lon="7.16973">
        <ele>682.167</ele>
        <time>2021-01-10T11:01:42Z</time>
      </trkpt>
      <trkpt lat="48.50188" lon="7.16984">
        <ele>683.845</ele>
        <time>2021-01-10T11:01:58Z</time>
      </trkpt>
      <trkpt lat="48.50192" lon="7.17002">
        <ele>680.923</ele>
        <time>2021-01-10T11:02:13Z</time>
      </trkpt>
      <trkpt lat="48.50199" lon="7.17019">
        <ele>679.52</ele>
        <time>2021-01-10T11:02:29Z</time>
      </trkpt>
      <trkpt lat="48.50211" lon="7.17034">
        <ele>680.311</ele>
        <time>2021-01-10T11:02:45Z</time>
      </trkpt>
      <trkpt lat="48.50226" lon="7.17051">
        <ele>680.848</ele>
        <time>2021-01-10T11:03:01Z</time>
      </trkpt>
      <trkpt lat="48.50236" lon="7.17059">
        <ele>681.85</ele>
        <time>2021-01-10T11:03:17Z</time>
      </trkpt>
      <trkpt lat="48.50247" lon="7.17075">
        <ele>680.824</ele>
        <time>2021-01-10T11:03:33Z</time>
      </trkpt>
      <trkpt lat="48.50263" lon="7.17084">
        <ele>681.631</ele>
        <time>2021-01-10T11:03:49Z</time>
      </trkpt>
      <trkpt lat="48.50279" lon="7.17087">
        <ele>684.106</ele>
        <time>2021-01-10T11:04:07Z</time>
      </trkpt>
      <trkpt lat="48.50309" lon="7.17089">
        <ele>686.687</ele>
        <time>2021-01-10T11:04:39Z</time>
      </trkpt>
      <trkpt lat="48.5039" lon="7.17025">
        <ele>699.585</ele>
        <time>2021-01-10T11:06:25Z</time>
      </trkpt>
      <trkpt lat="48.50397" lon="7.17013">
        <ele>702.041</ele>
        <time>2021-01-10T11:06:44Z</time>
      </trkpt>
      <trkpt lat="48.50404" lon="7.17004">
        <ele>704.038</ele>
        <time>2021-01-10T11:07:26Z</time>
      </trkpt>
      <trkpt lat="48.50417" lon="7.16993">
        <ele>705.852</ele>
        <time>2021-01-10T11:07:42Z</time>
      </trkpt>
      <trkpt lat="48.50436" lon="7.16988">
        <ele>706.092</ele>
        <time>2021-01-10T11:08:05Z</time>
      </trkpt>
      <trkpt lat="48.50459" lon="7.1698">
        <ele>706.851</ele>
        <time>2021-01-10T11:08:21Z</time>
      </trkpt>
      <trkpt lat="48.50474" lon="7.16973">
        <ele>707.643</ele>
        <time>2021-01-10T11:08:36Z</time>
      </trkpt>
      <trkpt lat="48.50489" lon="7.16956">
        <ele>710.252</ele>
        <time>2021-01-10T11:08:52Z</time>
      </trkpt>
      <trkpt lat="48.50504" lon="7.16944">
        <ele>711.836</ele>
        <time>2021-01-10T11:09:08Z</time>
      </trkpt>
      <trkpt lat="48.50522" lon="7.16932">
        <ele>713.115</ele>
        <time>2021-01-10T11:09:25Z</time>
      </trkpt>
      <trkpt lat="48.50533" lon="7.16918">
        <ele>715.317</ele>
        <time>2021-01-10T11:09:41Z</time>
      </trkpt>
      <trkpt lat="48.5055" lon="7.16899">
        <ele>718.044</ele>
        <time>2021-01-10T11:09:57Z</time>
      </trkpt>
      <trkpt lat="48.50556" lon="7.16889">
        <ele>719.896</ele>
        <time>2021-01-10T11:10:12Z</time>
      </trkpt>
      <trkpt lat="48.50567" lon="7.16877">
        <ele>721.732</ele>
        <time>2021-01-10T11:10:27Z</time>
      </trkpt>
      <trkpt lat="48.50558" lon="7.16875">
        <ele>722.43</ele>
        <time>2021-01-10T11:10:56Z</time>
      </trkpt>
      <trkpt lat="48.50543" lon="7.16876">
        <ele>723.087</ele>
        <time>2021-01-10T11:11:11Z</time>
      </trkpt>
      <trkpt lat="48.50526" lon="7.16875">
        <ele>724.052</ele>
        <time>2021-01-10T11:11:30Z</time>
      </trkpt>
      <trkpt lat="48.50507" lon="7.16875">
        <ele>725.519</ele>
        <time>2021-01-10T11:11:49Z</time>
      </trkpt>
      <trkpt lat="48.50494" lon="7.16871">
        <ele>727.289</ele>
        <time>2021-01-10T11:12:04Z</time>
      </trkpt>
      <trkpt lat="48.50484" lon="7.16866">
        <ele>729.14</ele>
        <time>2021-01-10T11:12:31Z</time>
      </trkpt>
      <trkpt lat="48.50473" lon="7.16865">
        <ele>730.046</ele>
        <time>2021-01-10T11:12:46Z</time>
      </trkpt>
      <trkpt lat="48.50442" lon="7.16869">
        <ele>733.234</ele>
        <time>2021-01-10T11:13:02Z</time>
      </trkpt>
      <trkpt lat="48.50429" lon="7.16875">
        <ele>733.178</ele>
        <time>2021-01-10T11:13:21Z</time>
      </trkpt>
      <trkpt lat="48.50415" lon="7.16892">
        <ele>730.55</ele>
        <time>2021-01-10T11:13:36Z</time>
      </trkpt>
      <trkpt lat="48.504" lon="7.16906">
        <ele>728.226</ele>
        <time>2021-01-10T11:13:59Z</time>
      </trkpt>
      <trkpt lat="48.5038" lon="7.16921">
        <ele>725.485</ele>
        <time>2021-01-10T11:14:14Z</time>
      </trkpt>
      <trkpt lat="48.50368" lon="7.16927">
        <ele>724.738</ele>
        <time>2021-01-10T11:14:30Z</time>
      </trkpt>
      <trkpt lat="48.50351" lon="7.16933">
        <ele>723.51</ele>
        <time>2021-01-10T11:14:46Z</time>
      </trkpt>
      <trkpt lat="48.50328" lon="7.16935">
        <ele>722.837</ele>
        <time>2021-01-10T11:15:02Z</time>
      </trkpt>
      <trkpt lat="48.50305" lon="7.16926">
        <ele>723.002</ele>
        <time>2021-01-10T11:15:18Z</time>
      </trkpt>
      <trkpt lat="48.50287" lon="7.16907">
        <ele>725.921</ele>
        <time>2021-01-10T11:15:34Z</time>
      </trkpt>
      <trkpt lat="48.50275" lon="7.1688">
        <ele>730.711</ele>
        <time>2021-01-10T11:15:50Z</time>
      </trkpt>
      <trkpt lat="48.50271" lon="7.16857">
        <ele>735.127</ele>
        <time>2021-01-10T11:16:05Z</time>
      </trkpt>
      <trkpt lat="48.50263" lon="7.16833">
        <ele>738.232</ele>
        <time>2021-01-10T11:16:22Z</time>
      </trkpt>
      <trkpt lat="48.50257" lon="7.16816">
        <ele>739.269</ele>
        <time>2021-01-10T11:17:02Z</time>
      </trkpt>
      <trkpt lat="48.50246" lon="7.1679">
        <ele>740.375</ele>
        <time>2021-01-10T11:17:18Z</time>
      </trkpt>
      <trkpt lat="48.50234" lon="7.16776">
        <ele>740.363</ele>
        <time>2021-01-10T11:17:33Z</time>
      </trkpt>
      <trkpt lat="48.50224" lon="7.16769">
        <ele>739.893</ele>
        <time>2021-01-10T11:17:53Z</time>
      </trkpt>
      <trkpt lat="48.50212" lon="7.16768">
        <ele>738.706</ele>
        <time>2021-01-10T11:18:33Z</time>
      </trkpt>
      <trkpt lat="48.50188" lon="7.16777">
        <ele>734.985</ele>
        <time>2021-01-10T11:18:49Z</time>
      </trkpt>
      <trkpt lat="48.5017" lon="7.1679">
        <ele>730.606</ele>
        <time>2021-01-10T11:19:05Z</time>
      </trkpt>
      <trkpt lat="48.50146" lon="7.16797">
        <ele>727.038</ele>
        <time>2021-01-10T11:19:21Z</time>
      </trkpt>
      <trkpt lat="48.50124" lon="7.16797">
        <ele>724.937</ele>
        <time>2021-01-10T11:19:37Z</time>
      </trkpt>
      <trkpt lat="48.50108" lon="7.1679">
        <ele>725.288</ele>
        <time>2021-01-10T11:19:52Z</time>
      </trkpt>
      <trkpt lat="48.50094" lon="7.1678">
        <ele>727.029</ele>
        <time>2021-01-10T11:20:08Z</time>
      </trkpt>
      <trkpt lat="48.50085" lon="7.16772">
        <ele>728.959</ele>
        <time>2021-01-10T11:20:43Z</time>
      </trkpt>
      <trkpt lat="48.50077" lon="7.16763">
        <ele>730.465</ele>
        <time>2021-01-10T11:21:25Z</time>
      </trkpt>
      <trkpt lat="48.50069" lon="7.16754">
        <ele>731.519</ele>
        <time>2021-01-10T11:21:50Z</time>
      </trkpt>
      <trkpt lat="48.50049" lon="7.16736">
        <ele>733.113</ele>
        <time>2021-01-10T11:22:06Z</time>
      </trkpt>
      <trkpt lat="48.50033" lon="7.16723">
        <ele>733.086</ele>
        <time>2021-01-10T11:22:21Z</time>
      </trkpt>
      <trkpt lat="48.50018" lon="7.16711">
        <ele>732.462</ele>
        <time>2021-01-10T11:22:36Z</time>
      </trkpt>
      <trkpt lat="48.50006" lon="7.1669">
        <ele>734.236</ele>
        <time>2021-01-10T11:22:52Z</time>
      </trkpt>
      <trkpt lat="48.49998" lon="7.1668">
        <ele>733.435</ele>
        <time>2021-01-10T11:23:14Z</time>
      </trkpt>
      <trkpt lat="48.4999" lon="7.16674">
        <ele>731.394</ele>
        <time>2021-01-10T11:25:24Z</time>
      </trkpt>
      <trkpt lat="48.49977" lon="7.16651">
        <ele>730.479</ele>
        <time>2021-01-10T11:25:40Z</time>
      </trkpt>
      <trkpt lat="48.49971" lon="7.16624">
        <ele>732.574</ele>
        <time>2021-01-10T11:25:55Z</time>
      </trkpt>
      <trkpt lat="48.49965" lon="7.16599">
        <ele>733.55</ele>
        <time>2021-01-10T11:26:11Z</time>
      </trkpt>
      <trkpt lat="48.4996" lon="7.16573">
        <ele>733.301</ele>
        <time>2021-01-10T11:26:26Z</time>
      </trkpt>
      <trkpt lat="48.49953" lon="7.16547">
        <ele>732.395</ele>
        <time>2021-01-10T11:26:41Z</time>
      </trkpt>
      <trkpt lat="48.49951" lon="7.16515">
        <ele>733.425</ele>
        <time>2021-01-10T11:26:57Z</time>
      </trkpt>
      <trkpt lat="48.49951" lon="7.16496">
        <ele>733.5</ele>
        <time>2021-01-10T11:27:14Z</time>
      </trkpt>
      <trkpt lat="48.49955" lon="7.16477">
        <ele>733.006</ele>
        <time>2021-01-10T11:27:54Z</time>
      </trkpt>
      <trkpt lat="48.49961" lon="7.16442">
        <ele>730.896</ele>
        <time>2021-01-10T11:28:10Z</time>
      </trkpt>
      <trkpt lat="48.49969" lon="7.16428">
        <ele>731.478</ele>
        <time>2021-01-10T11:28:26Z</time>
      </trkpt>
      <trkpt lat="48.49982" lon="7.16402">
        <ele>730.174</ele>
        <time>2021-01-10T11:28:42Z</time>
      </trkpt>
      <trkpt lat="48.5" lon="7.16387">
        <ele>730.353</ele>
        <time>2021-01-10T11:28:59Z</time>
      </trkpt>
      <trkpt lat="48.50014" lon="7.16378">
        <ele>728.75</ele>
        <time>2021-01-10T11:29:14Z</time>
      </trkpt>
      <trkpt lat="48.5003" lon="7.16377">
        <ele>729.68</ele>
        <time>2021-01-10T11:29:30Z</time>
      </trkpt>
      <trkpt lat="48.5005" lon="7.16383">
        <ele>730.381</ele>
        <time>2021-01-10T11:29:48Z</time>
      </trkpt>
      <trkpt lat="48.5006" lon="7.16387">
        <ele>731.151</ele>
        <time>2021-01-10T11:30:05Z</time>
      </trkpt>
      <trkpt lat="48.50086" lon="7.16395">
        <ele>732.777</ele>
        <time>2021-01-10T11:30:21Z</time>
      </trkpt>
      <trkpt lat="48.50113" lon="7.16403">
        <ele>734.082</ele>
        <time>2021-01-10T11:30:36Z</time>
      </trkpt>
      <trkpt lat="48.50123" lon="7.16402">
        <ele>733.049</ele>
        <time>2021-01-10T11:30:52Z</time>
      </trkpt>
      <trkpt lat="48.50141" lon="7.16402">
        <ele>732.106</ele>
        <time>2021-01-10T11:31:07Z</time>
      </trkpt>
      <trkpt lat="48.50158" lon="7.16397">
        <ele>729.433</ele>
        <time>2021-01-10T11:31:22Z</time>
      </trkpt>
      <trkpt lat="48.50171" lon="7.164">
        <ele>730.301</ele>
        <time>2021-01-10T11:31:38Z</time>
      </trkpt>
      <trkpt lat="48.50195" lon="7.16402">
        <ele>731.737</ele>
        <time>2021-01-10T11:31:54Z</time>
      </trkpt>
      <trkpt lat="48.50213" lon="7.16401">
        <ele>731.249</ele>
        <time>2021-01-10T11:32:10Z</time>
      </trkpt>
      <trkpt lat="48.50224" lon="7.16401">
        <ele>731.256</ele>
        <time>2021-01-10T11:32:26Z</time>
      </trkpt>
      <trkpt lat="48.50254" lon="7.16404">
        <ele>734.102</ele>
        <time>2021-01-10T11:32:52Z</time>
      </trkpt>
      <trkpt lat="48.50278" lon="7.16407">
        <ele>735.978</ele>
        <time>2021-01-10T11:33:08Z</time>
      </trkpt>
      <trkpt lat="48.50298" lon="7.16394">
        <ele>733.743</ele>
        <time>2021-01-10T11:33:23Z</time>
      </trkpt>
      <trkpt lat="48.50318" lon="7.1638">
        <ele>732.832</ele>
        <time>2021-01-10T11:33:39Z</time>
      </trkpt>
      <trkpt lat="48.50333" lon="7.16366">
        <ele>731.482</ele>
        <time>2021-01-10T11:33:54Z</time>
      </trkpt>
      <trkpt lat="48.50346" lon="7.16352">
        <ele>730.839</ele>
        <time>2021-01-10T11:34:10Z</time>
      </trkpt>
      <trkpt lat="48.5036" lon="7.16338">
        <ele>731.146</ele>
        <time>2021-01-10T11:34:26Z</time>
      </trkpt>
      <trkpt lat="48.50376" lon="7.1632">
        <ele>729.236</ele>
        <time>2021-01-10T11:34:41Z</time>
      </trkpt>
      <trkpt lat="48.50389" lon="7.1631">
        <ele>729.232</ele>
        <time>2021-01-10T11:34:57Z</time>
      </trkpt>
      <trkpt lat="48.50402" lon="7.16304">
        <ele>730.863</ele>
        <time>2021-01-10T11:35:12Z</time>
      </trkpt>
      <trkpt lat="48.50424" lon="7.16288">
        <ele>731.883</ele>
        <time>2021-01-10T11:35:28Z</time>
      </trkpt>
      <trkpt lat="48.50438" lon="7.1627">
        <ele>731.084</ele>
        <time>2021-01-10T11:35:44Z</time>
      </trkpt>
      <trkpt lat="48.50455" lon="7.16258">
        <ele>734.226</ele>
        <time>2021-01-10T11:36:00Z</time>
      </trkpt>
      <trkpt lat="48.50465" lon="7.16238">
        <ele>735.545</ele>
        <time>2021-01-10T11:36:16Z</time>
      </trkpt>
      <trkpt lat="48.50467" lon="7.16224">
        <ele>734.768</ele>
        <time>2021-01-10T11:36:39Z</time>
      </trkpt>
      <trkpt lat="48.50461" lon="7.16204">
        <ele>732.848</ele>
        <time>2021-01-10T11:36:55Z</time>
      </trkpt>
      <trkpt lat="48.50461" lon="7.16178">
        <ele>734.694</ele>
        <time>2021-01-10T11:37:31Z</time>
      </trkpt>
      <trkpt lat="48.50459" lon="7.16164">
        <ele>734.56</ele>
        <time>2021-01-10T11:37:54Z</time>
      </trkpt>
      <trkpt lat="48.50452" lon="7.16148">
        <ele>731.975</ele>
        <time>2021-01-10T11:38:27Z</time>
      </trkpt>
      <trkpt lat="48.50439" lon="7.16127">
        <ele>728.82</ele>
        <time>2021-01-10T11:38:42Z</time>
      </trkpt>
      <trkpt lat="48.50424" lon="7.16109">
        <ele>725.535</ele>
        <time>2021-01-10T11:38:58Z</time>
      </trkpt>
      <trkpt lat="48.50408" lon="7.16096">
        <ele>722.167</ele>
        <time>2021-01-10T11:39:14Z</time>
      </trkpt>
      <trkpt lat="48.50393" lon="7.16079">
        <ele>720.557</ele>
        <time>2021-01-10T11:39:29Z</time>
      </trkpt>
      <trkpt lat="48.50386" lon="7.16057">
        <ele>722.811</ele>
        <time>2021-01-10T11:39:45Z</time>
      </trkpt>
      <trkpt lat="48.50382" lon="7.16032">
        <ele>727.604</ele>
        <time>2021-01-10T11:40:01Z</time>
      </trkpt>
      <trkpt lat="48.50377" lon="7.16002">
        <ele>728.581</ele>
        <time>2021-01-10T11:40:16Z</time>
      </trkpt>
      <trkpt lat="48.50379" lon="7.15974">
        <ele>729.236</ele>
        <time>2021-01-10T11:40:31Z</time>
      </trkpt>
      <trkpt lat="48.50377" lon="7.15959">
        <ele>728.838</ele>
        <time>2021-01-10T11:42:17Z</time>
      </trkpt>
      <trkpt lat="48.50376" lon="7.15935">
        <ele>728.679</ele>
        <time>2021-01-10T11:42:33Z</time>
      </trkpt>
      <trkpt lat="48.50376" lon="7.15919">
        <ele>728.246</ele>
        <time>2021-01-10T11:43:02Z</time>
      </trkpt>
      <trkpt lat="48.50396" lon="7.15902">
        <ele>728.872</ele>
        <time>2021-01-10T11:43:18Z</time>
      </trkpt>
      <trkpt lat="48.50413" lon="7.15896">
        <ele>730.26</ele>
        <time>2021-01-10T11:43:33Z</time>
      </trkpt>
      <trkpt lat="48.50424" lon="7.15896">
        <ele>731.937</ele>
        <time>2021-01-10T11:43:54Z</time>
      </trkpt>
      <trkpt lat="48.50451" lon="7.15894">
        <ele>735.527</ele>
        <time>2021-01-10T11:44:10Z</time>
      </trkpt>
      <trkpt lat="48.5047" lon="7.15883">
        <ele>736.04</ele>
        <time>2021-01-10T11:44:26Z</time>
      </trkpt>
      <trkpt lat="48.50489" lon="7.15873">
        <ele>736.966</ele>
        <time>2021-01-10T11:44:41Z</time>
      </trkpt>
      <trkpt lat="48.50503" lon="7.15854">
        <ele>735.519</ele>
        <time>2021-01-10T11:44:56Z</time>
      </trkpt>
      <trkpt lat="48.50516" lon="7.1585">
        <ele>740.101</ele>
        <time>2021-01-10T11:45:12Z</time>
      </trkpt>
      <trkpt lat="48.50519" lon="7.1582">
        <ele>736.827</ele>
        <time>2021-01-10T11:45:28Z</time>
      </trkpt>
      <trkpt lat="48.5052" lon="7.15806">
        <ele>736.511</ele>
        <time>2021-01-10T11:45:49Z</time>
      </trkpt>
      <trkpt lat="48.50519" lon="7.15786">
        <ele>735.319</ele>
        <time>2021-01-10T11:46:04Z</time>
      </trkpt>
      <trkpt lat="48.5052" lon="7.15761">
        <ele>735.401</ele>
        <time>2021-01-10T11:46:20Z</time>
      </trkpt>
      <trkpt lat="48.50519" lon="7.15738">
        <ele>733.746</ele>
        <time>2021-01-10T11:46:36Z</time>
      </trkpt>
      <trkpt lat="48.50519" lon="7.15708">
        <ele>733.465</ele>
        <time>2021-01-10T11:46:51Z</time>
      </trkpt>
      <trkpt lat="48.5052" lon="7.15686">
        <ele>733.741</ele>
        <time>2021-01-10T11:47:06Z</time>
      </trkpt>
      <trkpt lat="48.5052" lon="7.15649">
        <ele>733.67</ele>
        <time>2021-01-10T11:47:22Z</time>
      </trkpt>
      <trkpt lat="48.50522" lon="7.15625">
        <ele>734.934</ele>
        <time>2021-01-10T11:47:38Z</time>
      </trkpt>
      <trkpt lat="48.5052" lon="7.15611">
        <ele>734.326</ele>
        <time>2021-01-10T11:47:56Z</time>
      </trkpt>
      <trkpt lat="48.50517" lon="7.15572">
        <ele>734.207</ele>
        <time>2021-01-10T11:48:12Z</time>
      </trkpt>
      <trkpt lat="48.50515" lon="7.15541">
        <ele>734.502</ele>
        <time>2021-01-10T11:48:27Z</time>
      </trkpt>
      <trkpt lat="48.50513" lon="7.15509">
        <ele>734.809</ele>
        <time>2021-01-10T11:48:43Z</time>
      </trkpt>
      <trkpt lat="48.50509" lon="7.15483">
        <ele>734.368</ele>
        <time>2021-01-10T11:48:59Z</time>
      </trkpt>
      <trkpt lat="48.50509" lon="7.1546">
        <ele>735.125</ele>
        <time>2021-01-10T11:49:22Z</time>
      </trkpt>
      <trkpt lat="48.50506" lon="7.15436">
        <ele>735.09</ele>
        <time>2021-01-10T11:49:37Z</time>
      </trkpt>
      <trkpt lat="48.50501" lon="7.15399">
        <ele>733.568</ele>
        <time>2021-01-10T11:49:52Z</time>
      </trkpt>
      <trkpt lat="48.50501" lon="7.15374">
        <ele>733.414</ele>
        <time>2021-01-10T11:50:08Z</time>
      </trkpt>
      <trkpt lat="48.50504" lon="7.1535">
        <ele>734.289</ele>
        <time>2021-01-10T11:50:23Z</time>
      </trkpt>
      <trkpt lat="48.50509" lon="7.15323">
        <ele>736.165</ele>
        <time>2021-01-10T11:50:39Z</time>
      </trkpt>
      <trkpt lat="48.50513" lon="7.15291">
        <ele>736.804</ele>
        <time>2021-01-10T11:50:55Z</time>
      </trkpt>
      <trkpt lat="48.50511" lon="7.1527">
        <ele>735.579</ele>
        <time>2021-01-10T11:51:10Z</time>
      </trkpt>
      <trkpt lat="48.50512" lon="7.15243">
        <ele>735.201</ele>
        <time>2021-01-10T11:51:25Z</time>
      </trkpt>
      <trkpt lat="48.50516" lon="7.15212">
        <ele>735.823</ele>
        <time>2021-01-10T11:51:41Z</time>
      </trkpt>
      <trkpt lat="48.5052" lon="7.15197">
        <ele>736.586</ele>
        <time>2021-01-10T11:51:56Z</time>
      </trkpt>
      <trkpt lat="48.50523" lon="7.15176">
        <ele>736.849</ele>
        <time>2021-01-10T11:52:11Z</time>
      </trkpt>
      <trkpt lat="48.50522" lon="7.15145">
        <ele>735.363</ele>
        <time>2021-01-10T11:52:27Z</time>
      </trkpt>
      <trkpt lat="48.50525" lon="7.15114">
        <ele>735.335</ele>
        <time>2021-01-10T11:52:43Z</time>
      </trkpt>
      <trkpt lat="48.5053" lon="7.15088">
        <ele>734.904</ele>
        <time>2021-01-10T11:52:59Z</time>
      </trkpt>
      <trkpt lat="48.50534" lon="7.15062">
        <ele>734.086</ele>
        <time>2021-01-10T11:53:14Z</time>
      </trkpt>
      <trkpt lat="48.5054" lon="7.15029">
        <ele>732.673</ele>
        <time>2021-01-10T11:53:30Z</time>
      </trkpt>
      <trkpt lat="48.50547" lon="7.15015">
        <ele>732.982</ele>
        <time>2021-01-10T11:53:45Z</time>
      </trkpt>
      <trkpt lat="48.5056" lon="7.15006">
        <ele>734.267</ele>
        <time>2021-01-10T11:54:01Z</time>
      </trkpt>
      <trkpt lat="48.50556" lon="7.15037">
        <ele>737.069</ele>
        <time>2021-01-10T11:54:17Z</time>
      </trkpt>
      <trkpt lat="48.50553" lon="7.15067">
        <ele>739.172</ele>
        <time>2021-01-10T11:54:32Z</time>
      </trkpt>
      <trkpt lat="48.50553" lon="7.15081">
        <ele>740.102</ele>
        <time>2021-01-10T11:55:05Z</time>
      </trkpt>
      <trkpt lat="48.50556" lon="7.15107">
        <ele>742.892</ele>
        <time>2021-01-10T11:55:21Z</time>
      </trkpt>
      <trkpt lat="48.50561" lon="7.15132">
        <ele>745.951</ele>
        <time>2021-01-10T11:55:37Z</time>
      </trkpt>
      <trkpt lat="48.50569" lon="7.15157">
        <ele>749.239</ele>
        <time>2021-01-10T11:55:53Z</time>
      </trkpt>
      <trkpt lat="48.50575" lon="7.15174">
        <ele>752.207</ele>
        <time>2021-01-10T11:56:09Z</time>
      </trkpt>
      <trkpt lat="48.50572" lon="7.15199">
        <ele>753.134</ele>
        <time>2021-01-10T11:56:25Z</time>
      </trkpt>
      <trkpt lat="48.50574" lon="7.15224">
        <ele>754.977</ele>
        <time>2021-01-10T11:56:40Z</time>
      </trkpt>
      <trkpt lat="48.50575" lon="7.15238">
        <ele>756.323</ele>
        <time>2021-01-10T11:56:57Z</time>
      </trkpt>
      <trkpt lat="48.50576" lon="7.15276">
        <ele>758.158</ele>
        <time>2021-01-10T11:57:52Z</time>
      </trkpt>
      <trkpt lat="48.50581" lon="7.15299">
        <ele>761.583</ele>
        <time>2021-01-10T11:58:08Z</time>
      </trkpt>
      <trkpt lat="48.50582" lon="7.15327">
        <ele>763.166</ele>
        <time>2021-01-10T11:58:23Z</time>
      </trkpt>
      <trkpt lat="48.50589" lon="7.15348">
        <ele>765.687</ele>
        <time>2021-01-10T11:58:38Z</time>
      </trkpt>
      <trkpt lat="48.50596" lon="7.15364">
        <ele>767.801</ele>
        <time>2021-01-10T11:58:54Z</time>
      </trkpt>
      <trkpt lat="48.50601" lon="7.15379">
        <ele>769.438</ele>
        <time>2021-01-10T11:59:09Z</time>
      </trkpt>
      <trkpt lat="48.50604" lon="7.154">
        <ele>770.8</ele>
        <time>2021-01-10T11:59:25Z</time>
      </trkpt>
      <trkpt lat="48.50616" lon="7.15417">
        <ele>774.164</ele>
        <time>2021-01-10T11:59:40Z</time>
      </trkpt>
      <trkpt lat="48.50624" lon="7.15432">
        <ele>776.592</ele>
        <time>2021-01-10T11:59:56Z</time>
      </trkpt>
      <trkpt lat="48.50629" lon="7.15453">
        <ele>778.767</ele>
        <time>2021-01-10T12:00:12Z</time>
      </trkpt>
      <trkpt lat="48.50627" lon="7.15466">
        <ele>778.658</ele>
        <time>2021-01-10T12:00:28Z</time>
      </trkpt>
      <trkpt lat="48.50628" lon="7.1548">
        <ele>779.683</ele>
        <time>2021-01-10T12:00:44Z</time>
      </trkpt>
      <trkpt lat="48.50631" lon="7.15503">
        <ele>781.635</ele>
        <time>2021-01-10T12:01:00Z</time>
      </trkpt>
      <trkpt lat="48.50636" lon="7.15523">
        <ele>784.802</ele>
        <time>2021-01-10T12:01:16Z</time>
      </trkpt>
      <trkpt lat="48.50642" lon="7.15544">
        <ele>787.631</ele>
        <time>2021-01-10T12:01:31Z</time>
      </trkpt>
      <trkpt lat="48.50641" lon="7.15565">
        <ele>788.374</ele>
        <time>2021-01-10T12:01:47Z</time>
      </trkpt>
      <trkpt lat="48.50642" lon="7.15584">
        <ele>789.851</ele>
        <time>2021-01-10T12:02:02Z</time>
      </trkpt>
      <trkpt lat="48.50647" lon="7.15603">
        <ele>792.364</ele>
        <time>2021-01-10T12:02:17Z</time>
      </trkpt>
      <trkpt lat="48.50652" lon="7.15622">
        <ele>794.521</ele>
        <time>2021-01-10T12:02:33Z</time>
      </trkpt>
      <trkpt lat="48.50654" lon="7.15636">
        <ele>795.774</ele>
        <time>2021-01-10T12:02:53Z</time>
      </trkpt>
      <trkpt lat="48.50658" lon="7.15656">
        <ele>797.943</ele>
        <time>2021-01-10T12:03:08Z</time>
      </trkpt>
      <trkpt lat="48.50661" lon="7.15669">
        <ele>799.326</ele>
        <time>2021-01-10T12:03:24Z</time>
      </trkpt>
      <trkpt lat="48.50661" lon="7.15692">
        <ele>800.962</ele>
        <time>2021-01-10T12:03:40Z</time>
      </trkpt>
      <trkpt lat="48.50656" lon="7.15714">
        <ele>799.723</ele>
        <time>2021-01-10T12:03:55Z</time>
      </trkpt>
      <trkpt lat="48.50657" lon="7.15733">
        <ele>800.904</ele>
        <time>2021-01-10T12:04:11Z</time>
      </trkpt>
      <trkpt lat="48.50658" lon="7.15755">
        <ele>802.573</ele>
        <time>2021-01-10T12:04:26Z</time>
      </trkpt>
      <trkpt lat="48.50664" lon="7.15774">
        <ele>805.623</ele>
        <time>2021-01-10T12:04:42Z</time>
      </trkpt>
      <trkpt lat="48.50663" lon="7.15791">
        <ele>806.597</ele>
        <time>2021-01-10T12:04:57Z</time>
      </trkpt>
      <trkpt lat="48.50668" lon="7.15807">
        <ele>809.465</ele>
        <time>2021-01-10T12:05:13Z</time>
      </trkpt>
      <trkpt lat="48.5067" lon="7.15822">
        <ele>810.745</ele>
        <time>2021-01-10T12:05:39Z</time>
      </trkpt>
      <trkpt lat="48.50664" lon="7.15833">
        <ele>808.956</ele>
        <time>2021-01-10T12:06:26Z</time>
      </trkpt>
      <trkpt lat="48.50664" lon="7.15847">
        <ele>810.146</ele>
        <time>2021-01-10T12:06:41Z</time>
      </trkpt>
      <trkpt lat="48.50667" lon="7.15861">
        <ele>812.211</ele>
        <time>2021-01-10T12:06:57Z</time>
      </trkpt>
      <trkpt lat="48.50666" lon="7.15878">
        <ele>812.358</ele>
        <time>2021-01-10T12:07:08Z</time>
      </trkpt>
      <trkpt lat="48.50666" lon="7.15896">
        <ele>813.113</ele>
        <time>2021-01-10T12:07:19Z</time>
      </trkpt>
      <trkpt lat="48.50666" lon="7.15914">
        <ele>813.772</ele>
        <time>2021-01-10T12:07:29Z</time>
      </trkpt>
      <trkpt lat="48.5066" lon="7.15934">
        <ele>812.869</ele>
        <time>2021-01-10T12:07:40Z</time>
      </trkpt>
      <trkpt lat="48.50661" lon="7.15955">
        <ele>814.363</ele>
        <time>2021-01-10T12:07:52Z</time>
      </trkpt>
      <trkpt lat="48.5066" lon="7.1597">
        <ele>814.661</ele>
        <time>2021-01-10T12:08:02Z</time>
      </trkpt>
      <trkpt lat="48.50656" lon="7.15991">
        <ele>814.455</ele>
        <time>2021-01-10T12:08:14Z</time>
      </trkpt>
      <trkpt lat="48.50657" lon="7.16008">
        <ele>815.789</ele>
        <time>2021-01-10T12:08:26Z</time>
      </trkpt>
      <trkpt lat="48.50659" lon="7.16024">
        <ele>817.21</ele>
        <time>2021-01-10T12:08:36Z</time>
      </trkpt>
      <trkpt lat="48.50659" lon="7.16042">
        <ele>818.248</ele>
        <time>2021-01-10T12:08:47Z</time>
      </trkpt>
      <trkpt lat="48.50658" lon="7.1606">
        <ele>818.369</ele>
        <time>2021-01-10T12:08:58Z</time>
      </trkpt>
      <trkpt lat="48.50654" lon="7.16078">
        <ele>817.415</ele>
        <time>2021-01-10T12:09:08Z</time>
      </trkpt>
      <trkpt lat="48.50654" lon="7.161">
        <ele>818.067</ele>
        <time>2021-01-10T12:09:20Z</time>
      </trkpt>
      <trkpt lat="48.50658" lon="7.16118">
        <ele>819.873</ele>
        <time>2021-01-10T12:09:32Z</time>
      </trkpt>
      <trkpt lat="48.50659" lon="7.16139">
        <ele>820.759</ele>
        <time>2021-01-10T12:09:43Z</time>
      </trkpt>
      <trkpt lat="48.50662" lon="7.16156">
        <ele>821.107</ele>
        <time>2021-01-10T12:09:54Z</time>
      </trkpt>
      <trkpt lat="48.50666" lon="7.16166">
        <ele>821.757</ele>
        <time>2021-01-10T12:10:00Z</time>
      </trkpt>
      <trkpt lat="48.50663" lon="7.16179">
        <ele>820.851</ele>
        <time>2021-01-10T12:10:34Z</time>
      </trkpt>
      <trkpt lat="48.50669" lon="7.16197">
        <ele>822.685</ele>
        <time>2021-01-10T12:10:44Z</time>
      </trkpt>
      <trkpt lat="48.50673" lon="7.16208">
        <ele>823.359</ele>
        <time>2021-01-10T12:10:50Z</time>
      </trkpt>
      <trkpt lat="48.50678" lon="7.16224">
        <ele>824.574</ele>
        <time>2021-01-10T12:11:01Z</time>
      </trkpt>
      <trkpt lat="48.50679" lon="7.16243">
        <ele>824.307</ele>
        <time>2021-01-10T12:11:13Z</time>
      </trkpt>
      <trkpt lat="48.50679" lon="7.16262">
        <ele>823.7</ele>
        <time>2021-01-10T12:11:23Z</time>
      </trkpt>
      <trkpt lat="48.50678" lon="7.16275">
        <ele>822.894</ele>
        <time>2021-01-10T12:11:34Z</time>
      </trkpt>
      <trkpt lat="48.5068" lon="7.16289">
        <ele>822.589</ele>
        <time>2021-01-10T12:11:46Z</time>
      </trkpt>
      <trkpt lat="48.50684" lon="7.16305">
        <ele>822.915</ele>
        <time>2021-01-10T12:12:02Z</time>
      </trkpt>
      <trkpt lat="48.50691" lon="7.16317">
        <ele>824.086</ele>
        <time>2021-01-10T12:12:14Z</time>
      </trkpt>
      <trkpt lat="48.50698" lon="7.16324">
        <ele>825.29</ele>
        <time>2021-01-10T12:12:26Z</time>
      </trkpt>
      <trkpt lat="48.5071" lon="7.16329">
        <ele>827.173</ele>
        <time>2021-01-10T12:12:37Z</time>
      </trkpt>
      <trkpt lat="48.50723" lon="7.16333">
        <ele>829.15</ele>
        <time>2021-01-10T12:12:54Z</time>
      </trkpt>
      <trkpt lat="48.50732" lon="7.16338">
        <ele>830.339</ele>
        <time>2021-01-10T12:13:05Z</time>
      </trkpt>
      <trkpt lat="48.5074" lon="7.16344">
        <ele>831.516</ele>
        <time>2021-01-10T12:13:16Z</time>
      </trkpt>
      <trkpt lat="48.50749" lon="7.16349">
        <ele>832.62</ele>
        <time>2021-01-10T12:13:22Z</time>
      </trkpt>
      <trkpt lat="48.50766" lon="7.16356">
        <ele>835.805</ele>
        <time>2021-01-10T12:13:34Z</time>
      </trkpt>
      <trkpt lat="48.50773" lon="7.16361">
        <ele>837.027</ele>
        <time>2021-01-10T12:13:40Z</time>
      </trkpt>
      <trkpt lat="48.50783" lon="7.16369">
        <ele>838.67</ele>
        <time>2021-01-10T12:13:57Z</time>
      </trkpt>
      <trkpt lat="48.50794" lon="7.16373">
        <ele>841.091</ele>
        <time>2021-01-10T12:14:08Z</time>
      </trkpt>
      <trkpt lat="48.50806" lon="7.16381">
        <ele>843.099</ele>
        <time>2021-01-10T12:14:19Z</time>
      </trkpt>
      <trkpt lat="48.50817" lon="7.16394">
        <ele>843.663</ele>
        <time>2021-01-10T12:14:42Z</time>
      </trkpt>
      <trkpt lat="48.50823" lon="7.164">
        <ele>844.159</ele>
        <time>2021-01-10T12:14:54Z</time>
      </trkpt>
      <trkpt lat="48.50831" lon="7.16408">
        <ele>844.684</ele>
        <time>2021-01-10T12:15:04Z</time>
      </trkpt>
      <trkpt lat="48.50841" lon="7.16422">
        <ele>845.18</ele>
        <time>2021-01-10T12:15:16Z</time>
      </trkpt>
      <trkpt lat="48.50848" lon="7.16431">
        <ele>845.574</ele>
        <time>2021-01-10T12:15:27Z</time>
      </trkpt>
      <trkpt lat="48.50854" lon="7.16437">
        <ele>846.43</ele>
        <time>2021-01-10T12:15:39Z</time>
      </trkpt>
      <trkpt lat="48.5086" lon="7.16443">
        <ele>846.828</ele>
        <time>2021-01-10T12:15:50Z</time>
      </trkpt>
      <trkpt lat="48.50871" lon="7.16453">
        <ele>847.842</ele>
        <time>2021-01-10T12:16:01Z</time>
      </trkpt>
      <trkpt lat="48.50879" lon="7.1646">
        <ele>848.864</ele>
        <time>2021-01-10T12:16:12Z</time>
      </trkpt>
      <trkpt lat="48.50888" lon="7.1647">
        <ele>849.316</ele>
        <time>2021-01-10T12:16:22Z</time>
      </trkpt>
      <trkpt lat="48.50897" lon="7.16478">
        <ele>849.455</ele>
        <time>2021-01-10T12:16:34Z</time>
      </trkpt>
      <trkpt lat="48.50905" lon="7.16487">
        <ele>849.564</ele>
        <time>2021-01-10T12:16:45Z</time>
      </trkpt>
      <trkpt lat="48.50913" lon="7.16497">
        <ele>849.533</ele>
        <time>2021-01-10T12:16:56Z</time>
      </trkpt>
      <trkpt lat="48.50922" lon="7.16501">
        <ele>851.329</ele>
        <time>2021-01-10T12:17:19Z</time>
      </trkpt>
      <trkpt lat="48.50932" lon="7.16502">
        <ele>854.22</ele>
        <time>2021-01-10T12:17:36Z</time>
      </trkpt>
      <trkpt lat="48.50943" lon="7.16502">
        <ele>857.391</ele>
        <time>2021-01-10T12:17:53Z</time>
      </trkpt>
      <trkpt lat="48.5096" lon="7.16505">
        <ele>861.9</ele>
        <time>2021-01-10T12:18:04Z</time>
      </trkpt>
      <trkpt lat="48.50971" lon="7.16514">
        <ele>864.557</ele>
        <time>2021-01-10T12:18:16Z</time>
      </trkpt>
      <trkpt lat="48.50982" lon="7.16525">
        <ele>867.275</ele>
        <time>2021-01-10T12:18:27Z</time>
      </trkpt>
      <trkpt lat="48.50983" lon="7.16542">
        <ele>866.2</ele>
        <time>2021-01-10T12:18:38Z</time>
      </trkpt>
      <trkpt lat="48.50991" lon="7.16555">
        <ele>867.601</ele>
        <time>2021-01-10T12:18:50Z</time>
      </trkpt>
      <trkpt lat="48.50998" lon="7.16567">
        <ele>868.49</ele>
        <time>2021-01-10T12:19:02Z</time>
      </trkpt>
      <trkpt lat="48.51005" lon="7.16574">
        <ele>870.039</ele>
        <time>2021-01-10T12:19:08Z</time>
      </trkpt>
      <trkpt lat="48.5101" lon="7.16589">
        <ele>870.309</ele>
        <time>2021-01-10T12:19:20Z</time>
      </trkpt>
      <trkpt lat="48.51015" lon="7.16604">
        <ele>870.39</ele>
        <time>2021-01-10T12:19:32Z</time>
      </trkpt>
      <trkpt lat="48.5102" lon="7.16615">
        <ele>871.189</ele>
        <time>2021-01-10T12:19:43Z</time>
      </trkpt>
      <trkpt lat="48.51028" lon="7.16622">
        <ele>872.943</ele>
        <time>2021-01-10T12:19:54Z</time>
      </trkpt>
      <trkpt lat="48.51034" lon="7.1663">
        <ele>873.899</ele>
        <time>2021-01-10T12:20:06Z</time>
      </trkpt>
      <trkpt lat="48.51044" lon="7.16635">
        <ele>876.245</ele>
        <time>2021-01-10T12:20:12Z</time>
      </trkpt>
      <trkpt lat="48.51052" lon="7.1664">
        <ele>877.722</ele>
        <time>2021-01-10T12:20:23Z</time>
      </trkpt>
      <trkpt lat="48.51063" lon="7.16649">
        <ele>879.957</ele>
        <time>2021-01-10T12:20:35Z</time>
      </trkpt>
      <trkpt lat="48.51071" lon="7.16656">
        <ele>881.408</ele>
        <time>2021-01-10T12:20:46Z</time>
      </trkpt>
      <trkpt lat="48.5108" lon="7.16664">
        <ele>882.608</ele>
        <time>2021-01-10T12:20:58Z</time>
      </trkpt>
      <trkpt lat="48.51088" lon="7.16674">
        <ele>883.259</ele>
        <time>2021-01-10T12:21:10Z</time>
      </trkpt>
      <trkpt lat="48.51095" lon="7.16681">
        <ele>883.766</ele>
        <time>2021-01-10T12:21:21Z</time>
      </trkpt>
      <trkpt lat="48.51104" lon="7.16688">
        <ele>884.76</ele>
        <time>2021-01-10T12:21:33Z</time>
      </trkpt>
      <trkpt lat="48.51112" lon="7.16695">
        <ele>885.162</ele>
        <time>2021-01-10T12:21:43Z</time>
      </trkpt>
      <trkpt lat="48.51118" lon="7.16701">
        <ele>885.821</ele>
        <time>2021-01-10T12:21:49Z</time>
      </trkpt>
      <trkpt lat="48.51125" lon="7.16713">
        <ele>885.319</ele>
        <time>2021-01-10T12:22:01Z</time>
      </trkpt>
      <trkpt lat="48.51137" lon="7.16717">
        <ele>887.717</ele>
        <time>2021-01-10T12:22:12Z</time>
      </trkpt>
      <trkpt lat="48.51143" lon="7.16727">
        <ele>886.942</ele>
        <time>2021-01-10T12:22:23Z</time>
      </trkpt>
      <trkpt lat="48.51154" lon="7.16737">
        <ele>887.264</ele>
        <time>2021-01-10T12:22:35Z</time>
      </trkpt>
      <trkpt lat="48.51164" lon="7.16743">
        <ele>888.153</ele>
        <time>2021-01-10T12:22:46Z</time>
      </trkpt>
      <trkpt lat="48.51172" lon="7.16748">
        <ele>888.921</ele>
        <time>2021-01-10T12:22:52Z</time>
      </trkpt>
      <trkpt lat="48.51182" lon="7.16755">
        <ele>889.705</ele>
        <time>2021-01-10T12:23:03Z</time>
      </trkpt>
      <trkpt lat="48.51195" lon="7.16764">
        <ele>890.046</ele>
        <time>2021-01-10T12:23:14Z</time>
      </trkpt>
      <trkpt lat="48.51201" lon="7.16773">
        <ele>888.902</ele>
        <time>2021-01-10T12:23:25Z</time>
      </trkpt>
      <trkpt lat="48.51206" lon="7.1678">
        <ele>887.988</ele>
        <time>2021-01-10T12:23:42Z</time>
      </trkpt>
      <trkpt lat="48.51219" lon="7.16787">
        <ele>888.63</ele>
        <time>2021-01-10T12:23:53Z</time>
      </trkpt>
      <trkpt lat="48.51227" lon="7.16798">
        <ele>885.554</ele>
        <time>2021-01-10T12:24:15Z</time>
      </trkpt>
      <trkpt lat="48.51237" lon="7.168">
        <ele>883.63</ele>
        <time>2021-01-10T12:24:21Z</time>
      </trkpt>
      <trkpt lat="48.51249" lon="7.16797">
        <ele>882.53</ele>
        <time>2021-01-10T12:24:32Z</time>
      </trkpt>
      <trkpt lat="48.51245" lon="7.16783">
        <ele>887.202</ele>
        <time>2021-01-10T12:24:43Z</time>
      </trkpt>
      <trkpt lat="48.51233" lon="7.1678">
        <ele>889.704</ele>
        <time>2021-01-10T12:24:56Z</time>
      </trkpt>
      <trkpt lat="48.51226" lon="7.16777">
        <ele>891.816</ele>
        <time>2021-01-10T12:25:01Z</time>
      </trkpt>
      <trkpt lat="48.51215" lon="7.16771">
        <ele>892.787</ele>
        <time>2021-01-10T12:25:13Z</time>
      </trkpt>
      <trkpt lat="48.51206" lon="7.16762">
        <ele>893.215</ele>
        <time>2021-01-10T12:25:24Z</time>
      </trkpt>
      <trkpt lat="48.51197" lon="7.16753">
        <ele>893.746</ele>
        <time>2021-01-10T12:25:35Z</time>
      </trkpt>
      <trkpt lat="48.51189" lon="7.16742">
        <ele>894.657</ele>
        <time>2021-01-10T12:25:45Z</time>
      </trkpt>
      <trkpt lat="48.51177" lon="7.16732">
        <ele>894.316</ele>
        <time>2021-01-10T12:25:57Z</time>
      </trkpt>
      <trkpt lat="48.51169" lon="7.16717">
        <ele>895.631</ele>
        <time>2021-01-10T12:26:09Z</time>
      </trkpt>
      <trkpt lat="48.51162" lon="7.16704">
        <ele>896.714</ele>
        <time>2021-01-10T12:26:21Z</time>
      </trkpt>
      <trkpt lat="48.51154" lon="7.16693">
        <ele>897.482</ele>
        <time>2021-01-10T12:26:32Z</time>
      </trkpt>
      <trkpt lat="48.51149" lon="7.16677">
        <ele>901.77</ele>
        <time>2021-01-10T12:26:43Z</time>
      </trkpt>
      <trkpt lat="48.51143" lon="7.16663">
        <ele>904.634</ele>
        <time>2021-01-10T12:26:55Z</time>
      </trkpt>
      <trkpt lat="48.51139" lon="7.16646">
        <ele>908.799</ele>
        <time>2021-01-10T12:27:12Z</time>
      </trkpt>
      <trkpt lat="48.51134" lon="7.16628">
        <ele>912.245</ele>
        <time>2021-01-10T12:27:23Z</time>
      </trkpt>
      <trkpt lat="48.51129" lon="7.16613">
        <ele>914.887</ele>
        <time>2021-01-10T12:27:35Z</time>
      </trkpt>
      <trkpt lat="48.51127" lon="7.16595">
        <ele>918.054</ele>
        <time>2021-01-10T12:27:46Z</time>
      </trkpt>
      <trkpt lat="48.51122" lon="7.16575">
        <ele>919.802</ele>
        <time>2021-01-10T12:27:57Z</time>
      </trkpt>
      <trkpt lat="48.5112" lon="7.16561">
        <ele>921.871</ele>
        <time>2021-01-10T12:28:08Z</time>
      </trkpt>
      <trkpt lat="48.51118" lon="7.16546">
        <ele>923.735</ele>
        <time>2021-01-10T12:28:19Z</time>
      </trkpt>
      <trkpt lat="48.51117" lon="7.16529">
        <ele>926.783</ele>
        <time>2021-01-10T12:28:31Z</time>
      </trkpt>
      <trkpt lat="48.51114" lon="7.16512">
        <ele>928.589</ele>
        <time>2021-01-10T12:28:42Z</time>
      </trkpt>
      <trkpt lat="48.51111" lon="7.16499">
        <ele>929.09</ele>
        <time>2021-01-10T12:28:48Z</time>
      </trkpt>
      <trkpt lat="48.51109" lon="7.16484">
        <ele>930.664</ele>
        <time>2021-01-10T12:28:59Z</time>
      </trkpt>
      <trkpt lat="48.51105" lon="7.16467">
        <ele>931.632</ele>
        <time>2021-01-10T12:29:11Z</time>
      </trkpt>
      <trkpt lat="48.51101" lon="7.1645">
        <ele>932.274</ele>
        <time>2021-01-10T12:29:23Z</time>
      </trkpt>
      <trkpt lat="48.51097" lon="7.16429">
        <ele>933.766</ele>
        <time>2021-01-10T12:29:40Z</time>
      </trkpt>
      <trkpt lat="48.51092" lon="7.16412">
        <ele>934.366</ele>
        <time>2021-01-10T12:29:52Z</time>
      </trkpt>
      <trkpt lat="48.51089" lon="7.16395">
        <ele>935.631</ele>
        <time>2021-01-10T12:30:04Z</time>
      </trkpt>
      <trkpt lat="48.51085" lon="7.16385">
        <ele>935.793</ele>
        <time>2021-01-10T12:30:10Z</time>
      </trkpt>
      <trkpt lat="48.51082" lon="7.16375">
        <ele>936.547</ele>
        <time>2021-01-10T12:30:15Z</time>
      </trkpt>
      <trkpt lat="48.51076" lon="7.16358">
        <ele>937.192</ele>
        <time>2021-01-10T12:30:26Z</time>
      </trkpt>
      <trkpt lat="48.51087" lon="7.16357">
        <ele>942.602</ele>
        <time>2021-01-10T12:31:10Z</time>
      </trkpt>
      <trkpt lat="48.51087" lon="7.16341">
        <ele>945.924</ele>
        <time>2021-01-10T12:31:32Z</time>
      </trkpt>
      <trkpt lat="48.51085" lon="7.1633">
        <ele>947.265</ele>
        <time>2021-01-10T12:31:44Z</time>
      </trkpt>
      <trkpt lat="48.51081" lon="7.16319">
        <ele>947.948</ele>
        <time>2021-01-10T12:32:01Z</time>
      </trkpt>
      <trkpt lat="48.51076" lon="7.16308">
        <ele>948.502</ele>
        <time>2021-01-10T12:32:13Z</time>
      </trkpt>
      <trkpt lat="48.51068" lon="7.16301">
        <ele>947</ele>
        <time>2021-01-10T12:32:25Z</time>
      </trkpt>
      <trkpt lat="48.51065" lon="7.1629">
        <ele>948.119</ele>
        <time>2021-01-10T12:32:37Z</time>
      </trkpt>
      <trkpt lat="48.51059" lon="7.16281">
        <ele>948.34</ele>
        <time>2021-01-10T12:32:48Z</time>
      </trkpt>
      <trkpt lat="48.51054" lon="7.16275">
        <ele>948</ele>
        <time>2021-01-10T12:32:59Z</time>
      </trkpt>
      <trkpt lat="48.51045" lon="7.16263">
        <ele>947.232</ele>
        <time>2021-01-10T12:33:16Z</time>
      </trkpt>
      <trkpt lat="48.5104" lon="7.16249">
        <ele>948.83</ele>
        <time>2021-01-10T12:33:32Z</time>
      </trkpt>
      <trkpt lat="48.51035" lon="7.16236">
        <ele>950.536</ele>
        <time>2021-01-10T12:33:44Z</time>
      </trkpt>
      <trkpt lat="48.51031" lon="7.1622">
        <ele>953.085</ele>
        <time>2021-01-10T12:34:01Z</time>
      </trkpt>
      <trkpt lat="48.51034" lon="7.16202">
        <ele>957.075</ele>
        <time>2021-01-10T12:34:23Z</time>
      </trkpt>
      <trkpt lat="48.51046" lon="7.16197">
        <ele>959.468</ele>
        <time>2021-01-10T12:34:40Z</time>
      </trkpt>
      <trkpt lat="48.51057" lon="7.16205">
        <ele>959.553</ele>
        <time>2021-01-10T12:34:52Z</time>
      </trkpt>
      <trkpt lat="48.51063" lon="7.16209">
        <ele>959.137</ele>
        <time>2021-01-10T12:35:03Z</time>
      </trkpt>
      <trkpt lat="48.51075" lon="7.16219">
        <ele>958.691</ele>
        <time>2021-01-10T12:35:21Z</time>
      </trkpt>
      <trkpt lat="48.51084" lon="7.16227">
        <ele>958.91</ele>
        <time>2021-01-10T12:35:32Z</time>
      </trkpt>
      <trkpt lat="48.51091" lon="7.16232">
        <ele>959.65</ele>
        <time>2021-01-10T12:35:37Z</time>
      </trkpt>
      <trkpt lat="48.51097" lon="7.1624">
        <ele>960.477</ele>
        <time>2021-01-10T12:35:43Z</time>
      </trkpt>
      <trkpt lat="48.51107" lon="7.16251">
        <ele>962.226</ele>
        <time>2021-01-10T12:35:54Z</time>
      </trkpt>
      <trkpt lat="48.51115" lon="7.16255">
        <ele>963.461</ele>
        <time>2021-01-10T12:36:00Z</time>
      </trkpt>
      <trkpt lat="48.51118" lon="7.16264">
        <ele>964.274</ele>
        <time>2021-01-10T12:36:11Z</time>
      </trkpt>
      <trkpt lat="48.51125" lon="7.16272">
        <ele>965.597</ele>
        <time>2021-01-10T12:36:22Z</time>
      </trkpt>
      <trkpt lat="48.51129" lon="7.16289">
        <ele>966.217</ele>
        <time>2021-01-10T12:36:39Z</time>
      </trkpt>
      <trkpt lat="48.51134" lon="7.16301">
        <ele>966.776</ele>
        <time>2021-01-10T12:36:51Z</time>
      </trkpt>
      <trkpt lat="48.51139" lon="7.16294">
        <ele>968.072</ele>
        <time>2021-01-10T12:37:40Z</time>
      </trkpt>
      <trkpt lat="48.51145" lon="7.163">
        <ele>969.32</ele>
        <time>2021-01-10T12:37:58Z</time>
      </trkpt>
      <trkpt lat="48.51154" lon="7.16305">
        <ele>971.287</ele>
        <time>2021-01-10T12:38:09Z</time>
      </trkpt>
      <trkpt lat="48.51162" lon="7.16309">
        <ele>973.024</ele>
        <time>2021-01-10T12:38:20Z</time>
      </trkpt>
      <trkpt lat="48.5117" lon="7.16315">
        <ele>974.551</ele>
        <time>2021-01-10T12:38:31Z</time>
      </trkpt>
      <trkpt lat="48.51177" lon="7.16323">
        <ele>975.453</ele>
        <time>2021-01-10T12:38:48Z</time>
      </trkpt>
      <trkpt lat="48.51183" lon="7.16331">
        <ele>976.518</ele>
        <time>2021-01-10T12:38:59Z</time>
      </trkpt>
      <trkpt lat="48.51191" lon="7.16338">
        <ele>978.106</ele>
        <time>2021-01-10T12:39:16Z</time>
      </trkpt>
      <trkpt lat="48.51195" lon="7.16348">
        <ele>979.689</ele>
        <time>2021-01-10T12:39:33Z</time>
      </trkpt>
      <trkpt lat="48.51197" lon="7.16361">
        <ele>981.383</ele>
        <time>2021-01-10T12:39:49Z</time>
      </trkpt>
      <trkpt lat="48.51202" lon="7.16368">
        <ele>983.35</ele>
        <time>2021-01-10T12:40:00Z</time>
      </trkpt>
      <trkpt lat="48.5121" lon="7.1638">
        <ele>986.992</ele>
        <time>2021-01-10T12:42:03Z</time>
      </trkpt>
      <trkpt lat="48.51216" lon="7.16389">
        <ele>990.076</ele>
        <time>2021-01-10T12:42:14Z</time>
      </trkpt>
      <trkpt lat="48.51224" lon="7.16393">
        <ele>991.943</ele>
        <time>2021-01-10T12:43:11Z</time>
      </trkpt>
      <trkpt lat="48.5123" lon="7.16399">
        <ele>991.825</ele>
        <time>2021-01-10T12:43:23Z</time>
      </trkpt>
      <trkpt lat="48.51234" lon="7.16408">
        <ele>991.876</ele>
        <time>2021-01-10T12:44:03Z</time>
      </trkpt>
      <trkpt lat="48.51242" lon="7.16412">
        <ele>991.875</ele>
        <time>2021-01-10T12:45:36Z</time>
      </trkpt>
      <trkpt lat="48.51246" lon="7.16421">
        <ele>991.976</ele>
        <time>2021-01-10T12:49:35Z</time>
      </trkpt>
      <trkpt lat="48.51248" lon="7.16434">
        <ele>991.959</ele>
        <time>2021-01-10T12:49:52Z</time>
      </trkpt>
      <trkpt lat="48.51254" lon="7.1644">
        <ele>991.152</ele>
        <time>2021-01-10T12:50:08Z</time>
      </trkpt>
      <trkpt lat="48.51259" lon="7.16454">
        <ele>990.571</ele>
        <time>2021-01-10T12:50:51Z</time>
      </trkpt>
      <trkpt lat="48.51263" lon="7.16467">
        <ele>990.012</ele>
        <time>2021-01-10T12:51:02Z</time>
      </trkpt>
      <trkpt lat="48.51269" lon="7.16478">
        <ele>989.526</ele>
        <time>2021-01-10T12:51:20Z</time>
      </trkpt>
      <trkpt lat="48.5127" lon="7.16492">
        <ele>989.948</ele>
        <time>2021-01-10T12:52:06Z</time>
      </trkpt>
      <trkpt lat="48.5127" lon="7.16509">
        <ele>986.572</ele>
        <time>2021-01-10T12:52:17Z</time>
      </trkpt>
      <trkpt lat="48.51273" lon="7.16524">
        <ele>979.913</ele>
        <time>2021-01-10T12:52:28Z</time>
      </trkpt>
      <trkpt lat="48.51279" lon="7.16538">
        <ele>973.187</ele>
        <time>2021-01-10T13:00:06Z</time>
      </trkpt>
      <trkpt lat="48.51276" lon="7.16521">
        <ele>981.065</ele>
        <time>2021-01-10T13:00:17Z</time>
      </trkpt>
      <trkpt lat="48.51281" lon="7.16509">
        <ele>985.411</ele>
        <time>2021-01-10T13:00:27Z</time>
      </trkpt>
      <trkpt lat="48.51287" lon="7.16519">
        <ele>980.36</ele>
        <time>2021-01-10T13:00:38Z</time>
      </trkpt>
      <trkpt lat="48.51292" lon="7.16527">
        <ele>975.661</ele>
        <time>2021-01-10T13:00:49Z</time>
      </trkpt>
      <trkpt lat="48.51298" lon="7.16537">
        <ele>969.845</ele>
        <time>2021-01-10T13:01:56Z</time>
      </trkpt>
      <trkpt lat="48.513" lon="7.16554">
        <ele>961.538</ele>
        <time>2021-01-10T13:02:13Z</time>
      </trkpt>
      <trkpt lat="48.51309" lon="7.16548">
        <ele>962.506</ele>
        <time>2021-01-10T13:02:30Z</time>
      </trkpt>
      <trkpt lat="48.51316" lon="7.16535">
        <ele>966.803</ele>
        <time>2021-01-10T13:02:41Z</time>
      </trkpt>
      <trkpt lat="48.51325" lon="7.1653">
        <ele>966.487</ele>
        <time>2021-01-10T13:02:52Z</time>
      </trkpt>
      <trkpt lat="48.51323" lon="7.16543">
        <ele>961.459</ele>
        <time>2021-01-10T13:03:31Z</time>
      </trkpt>
      <trkpt lat="48.51318" lon="7.16553">
        <ele>958.525</ele>
        <time>2021-01-10T13:03:47Z</time>
      </trkpt>
      <trkpt lat="48.51312" lon="7.16561">
        <ele>956.204</ele>
        <time>2021-01-10T13:03:58Z</time>
      </trkpt>
      <trkpt lat="48.5131" lon="7.16577">
        <ele>949.083</ele>
        <time>2021-01-10T13:04:58Z</time>
      </trkpt>
      <trkpt lat="48.51304" lon="7.16594">
        <ele>942.459</ele>
        <time>2021-01-10T13:05:37Z</time>
      </trkpt>
      <trkpt lat="48.51296" lon="7.16601">
        <ele>940.771</ele>
        <time>2021-01-10T13:05:48Z</time>
      </trkpt>
      <trkpt lat="48.51291" lon="7.16608">
        <ele>938.666</ele>
        <time>2021-01-10T13:06:04Z</time>
      </trkpt>
      <trkpt lat="48.51301" lon="7.16608">
        <ele>936.208</ele>
        <time>2021-01-10T13:06:32Z</time>
      </trkpt>
      <trkpt lat="48.51309" lon="7.16604">
        <ele>936.905</ele>
        <time>2021-01-10T13:06:43Z</time>
      </trkpt>
      <trkpt lat="48.5132" lon="7.166">
        <ele>937.645</ele>
        <time>2021-01-10T13:06:54Z</time>
      </trkpt>
      <trkpt lat="48.51329" lon="7.16595">
        <ele>939.019</ele>
        <time>2021-01-10T13:07:05Z</time>
      </trkpt>
      <trkpt lat="48.51341" lon="7.1659">
        <ele>939.072</ele>
        <time>2021-01-10T13:07:16Z</time>
      </trkpt>
      <trkpt lat="48.51355" lon="7.16583">
        <ele>939.162</ele>
        <time>2021-01-10T13:07:28Z</time>
      </trkpt>
      <trkpt lat="48.51364" lon="7.16569">
        <ele>941.468</ele>
        <time>2021-01-10T13:07:39Z</time>
      </trkpt>
      <trkpt lat="48.51364" lon="7.16551">
        <ele>947.321</ele>
        <time>2021-01-10T13:07:56Z</time>
      </trkpt>
      <trkpt lat="48.51361" lon="7.16536">
        <ele>953.396</ele>
        <time>2021-01-10T13:08:08Z</time>
      </trkpt>
      <trkpt lat="48.51362" lon="7.16517">
        <ele>957.597</ele>
        <time>2021-01-10T13:08:25Z</time>
      </trkpt>
      <trkpt lat="48.51362" lon="7.16502">
        <ele>961.392</ele>
        <time>2021-01-10T13:08:42Z</time>
      </trkpt>
      <trkpt lat="48.51363" lon="7.16488">
        <ele>958.204</ele>
        <time>2021-01-10T13:09:02Z</time>
      </trkpt>
      <trkpt lat="48.51363" lon="7.16469">
        <ele>954.493</ele>
        <time>2021-01-10T13:09:35Z</time>
      </trkpt>
      <trkpt lat="48.5136" lon="7.16453">
        <ele>952.935</ele>
        <time>2021-01-10T13:09:47Z</time>
      </trkpt>
      <trkpt lat="48.51359" lon="7.16436">
        <ele>950.434</ele>
        <time>2021-01-10T13:09:58Z</time>
      </trkpt>
      <trkpt lat="48.51359" lon="7.16421">
        <ele>948.266</ele>
        <time>2021-01-10T13:10:10Z</time>
      </trkpt>
      <trkpt lat="48.51359" lon="7.16402">
        <ele>944.699</ele>
        <time>2021-01-10T13:10:31Z</time>
      </trkpt>
      <trkpt lat="48.51357" lon="7.16386">
        <ele>942.745</ele>
        <time>2021-01-10T13:10:48Z</time>
      </trkpt>
      <trkpt lat="48.51354" lon="7.1637">
        <ele>940.884</ele>
        <time>2021-01-10T13:11:12Z</time>
      </trkpt>
      <trkpt lat="48.51348" lon="7.16356">
        <ele>941.019</ele>
        <time>2021-01-10T13:11:24Z</time>
      </trkpt>
      <trkpt lat="48.51345" lon="7.16343">
        <ele>939.5</ele>
        <time>2021-01-10T13:11:41Z</time>
      </trkpt>
      <trkpt lat="48.51341" lon="7.16326">
        <ele>937.937</ele>
        <time>2021-01-10T13:12:16Z</time>
      </trkpt>
      <trkpt lat="48.51338" lon="7.16314">
        <ele>935.954</ele>
        <time>2021-01-10T13:12:27Z</time>
      </trkpt>
      <trkpt lat="48.51337" lon="7.16302">
        <ele>933.353</ele>
        <time>2021-01-10T13:13:08Z</time>
      </trkpt>
      <trkpt lat="48.51336" lon="7.16287">
        <ele>929.412</ele>
        <time>2021-01-10T13:13:47Z</time>
      </trkpt>
      <trkpt lat="48.51344" lon="7.16299">
        <ele>929.488</ele>
        <time>2021-01-10T13:14:08Z</time>
      </trkpt>
      <trkpt lat="48.51359" lon="7.16323">
        <ele>928.874</ele>
        <time>2021-01-10T13:14:24Z</time>
      </trkpt>
      <trkpt lat="48.51371" lon="7.16341">
        <ele>926.308</ele>
        <time>2021-01-10T13:14:39Z</time>
      </trkpt>
      <trkpt lat="48.51383" lon="7.1636">
        <ele>923.501</ele>
        <time>2021-01-10T13:14:55Z</time>
      </trkpt>
      <trkpt lat="48.5139" lon="7.16383">
        <ele>924.391</ele>
        <time>2021-01-10T13:15:11Z</time>
      </trkpt>
      <trkpt lat="48.51403" lon="7.16406">
        <ele>920.201</ele>
        <time>2021-01-10T13:15:26Z</time>
      </trkpt>
      <trkpt lat="48.51413" lon="7.16431">
        <ele>918.39</ele>
        <time>2021-01-10T13:15:42Z</time>
      </trkpt>
      <trkpt lat="48.51425" lon="7.16451">
        <ele>914.093</ele>
        <time>2021-01-10T13:15:58Z</time>
      </trkpt>
      <trkpt lat="48.51434" lon="7.1648">
        <ele>911.511</ele>
        <time>2021-01-10T13:16:14Z</time>
      </trkpt>
      <trkpt lat="48.51442" lon="7.16512">
        <ele>909.214</ele>
        <time>2021-01-10T13:16:30Z</time>
      </trkpt>
      <trkpt lat="48.51449" lon="7.16542">
        <ele>904.567</ele>
        <time>2021-01-10T13:16:46Z</time>
      </trkpt>
      <trkpt lat="48.51456" lon="7.16566">
        <ele>900.458</ele>
        <time>2021-01-10T13:17:49Z</time>
      </trkpt>
      <trkpt lat="48.51456" lon="7.16581">
        <ele>900.062</ele>
        <time>2021-01-10T13:18:09Z</time>
      </trkpt>
      <trkpt lat="48.5146" lon="7.16594">
        <ele>897.336</ele>
        <time>2021-01-10T13:19:05Z</time>
      </trkpt>
      <trkpt lat="48.51461" lon="7.16628">
        <ele>893.807</ele>
        <time>2021-01-10T13:19:20Z</time>
      </trkpt>
      <trkpt lat="48.51461" lon="7.16659">
        <ele>887.266</ele>
        <time>2021-01-10T13:19:35Z</time>
      </trkpt>
      <trkpt lat="48.51454" lon="7.16675">
        <ele>887.319</ele>
        <time>2021-01-10T13:19:51Z</time>
      </trkpt>
      <trkpt lat="48.51445" lon="7.16681">
        <ele>889.26</ele>
        <time>2021-01-10T13:20:11Z</time>
      </trkpt>
      <trkpt lat="48.51452" lon="7.1669">
        <ele>884.6</ele>
        <time>2021-01-10T13:20:49Z</time>
      </trkpt>
      <trkpt lat="48.51465" lon="7.16696">
        <ele>879.049</ele>
        <time>2021-01-10T13:21:05Z</time>
      </trkpt>
      <trkpt lat="48.51448" lon="7.16703">
        <ele>882.548</ele>
        <time>2021-01-10T13:21:21Z</time>
      </trkpt>
      <trkpt lat="48.51433" lon="7.16717">
        <ele>881.99</ele>
        <time>2021-01-10T13:21:37Z</time>
      </trkpt>
      <trkpt lat="48.51417" lon="7.16731">
        <ele>881.255</ele>
        <time>2021-01-10T13:21:52Z</time>
      </trkpt>
      <trkpt lat="48.51404" lon="7.16743">
        <ele>878.794</ele>
        <time>2021-01-10T13:22:08Z</time>
      </trkpt>
      <trkpt lat="48.51414" lon="7.1675">
        <ele>875.331</ele>
        <time>2021-01-10T13:22:24Z</time>
      </trkpt>
      <trkpt lat="48.51429" lon="7.1675">
        <ele>873.161</ele>
        <time>2021-01-10T13:22:40Z</time>
      </trkpt>
      <trkpt lat="48.51448" lon="7.16752">
        <ele>869.483</ele>
        <time>2021-01-10T13:22:55Z</time>
      </trkpt>
      <trkpt lat="48.51465" lon="7.16756">
        <ele>865.175</ele>
        <time>2021-01-10T13:23:10Z</time>
      </trkpt>
      <trkpt lat="48.51487" lon="7.16768">
        <ele>857.909</ele>
        <time>2021-01-10T13:23:26Z</time>
      </trkpt>
      <trkpt lat="48.51507" lon="7.16758">
        <ele>855.201</ele>
        <time>2021-01-10T13:23:42Z</time>
      </trkpt>
      <trkpt lat="48.51519" lon="7.16739">
        <ele>854.603</ele>
        <time>2021-01-10T13:23:57Z</time>
      </trkpt>
      <trkpt lat="48.51532" lon="7.16717">
        <ele>852.988</ele>
        <time>2021-01-10T13:24:12Z</time>
      </trkpt>
      <trkpt lat="48.51545" lon="7.16678">
        <ele>850.872</ele>
        <time>2021-01-10T13:24:28Z</time>
      </trkpt>
      <trkpt lat="48.51552" lon="7.16683">
        <ele>848.203</ele>
        <time>2021-01-10T13:25:00Z</time>
      </trkpt>
      <trkpt lat="48.51554" lon="7.16713">
        <ele>845.089</ele>
        <time>2021-01-10T13:25:16Z</time>
      </trkpt>
      <trkpt lat="48.51559" lon="7.16743">
        <ele>840.643</ele>
        <time>2021-01-10T13:25:32Z</time>
      </trkpt>
      <trkpt lat="48.51565" lon="7.16776">
        <ele>835.877</ele>
        <time>2021-01-10T13:25:47Z</time>
      </trkpt>
      <trkpt lat="48.51568" lon="7.16805">
        <ele>832.889</ele>
        <time>2021-01-10T13:26:02Z</time>
      </trkpt>
      <trkpt lat="48.51571" lon="7.16837">
        <ele>829.364</ele>
        <time>2021-01-10T13:26:18Z</time>
      </trkpt>
      <trkpt lat="48.51574" lon="7.16865">
        <ele>826.471</ele>
        <time>2021-01-10T13:26:34Z</time>
      </trkpt>
      <trkpt lat="48.51576" lon="7.16896">
        <ele>824.471</ele>
        <time>2021-01-10T13:26:49Z</time>
      </trkpt>
      <trkpt lat="48.51577" lon="7.1693">
        <ele>822.742</ele>
        <time>2021-01-10T13:27:05Z</time>
      </trkpt>
      <trkpt lat="48.51577" lon="7.16962">
        <ele>821.235</ele>
        <time>2021-01-10T13:27:21Z</time>
      </trkpt>
      <trkpt lat="48.51588" lon="7.16975">
        <ele>821.09</ele>
        <time>2021-01-10T13:27:37Z</time>
      </trkpt>
      <trkpt lat="48.51573" lon="7.1699">
        <ele>819.757</ele>
        <time>2021-01-10T13:30:50Z</time>
      </trkpt>
      <trkpt lat="48.51565" lon="7.16969">
        <ele>820.51</ele>
        <time>2021-01-10T13:31:06Z</time>
      </trkpt>
      <trkpt lat="48.51553" lon="7.16961">
        <ele>820.553</ele>
        <time>2021-01-10T13:31:23Z</time>
      </trkpt>
      <trkpt lat="48.51533" lon="7.16953">
        <ele>819.278</ele>
        <time>2021-01-10T13:31:39Z</time>
      </trkpt>
      <trkpt lat="48.51507" lon="7.16945">
        <ele>816.877</ele>
        <time>2021-01-10T13:31:55Z</time>
      </trkpt>
      <trkpt lat="48.51496" lon="7.16938">
        <ele>817.257</ele>
        <time>2021-01-10T13:32:10Z</time>
      </trkpt>
      <trkpt lat="48.51478" lon="7.1693">
        <ele>818.761</ele>
        <time>2021-01-10T13:32:26Z</time>
      </trkpt>
      <trkpt lat="48.51463" lon="7.16934">
        <ele>817.846</ele>
        <time>2021-01-10T13:32:41Z</time>
      </trkpt>
      <trkpt lat="48.5145" lon="7.16938">
        <ele>816.84</ele>
        <time>2021-01-10T13:32:56Z</time>
      </trkpt>
      <trkpt lat="48.5143" lon="7.16946">
        <ele>814.522</ele>
        <time>2021-01-10T13:33:12Z</time>
      </trkpt>
      <trkpt lat="48.51412" lon="7.16954">
        <ele>812.876</ele>
        <time>2021-01-10T13:33:28Z</time>
      </trkpt>
      <trkpt lat="48.51397" lon="7.16966">
        <ele>812.415</ele>
        <time>2021-01-10T13:33:43Z</time>
      </trkpt>
      <trkpt lat="48.51382" lon="7.16979">
        <ele>811.274</ele>
        <time>2021-01-10T13:33:58Z</time>
      </trkpt>
      <trkpt lat="48.50021" lon="7.16941">
        <ele>657.235</ele>
        <time>2021-01-10T13:57:10Z</time>
      </trkpt>
      <trkpt lat="48.5" lon="7.16925">
        <ele>656.572</ele>
        <time>2021-01-10T13:57:25Z</time>
      </trkpt>
      <trkpt lat="48.49981" lon="7.16913">
        <ele>654.117</ele>
        <time>2021-01-10T13:57:41Z</time>
      </trkpt>
      <trkpt lat="48.49961" lon="7.16904">
        <ele>651.182</ele>
        <time>2021-01-10T13:57:56Z</time>
      </trkpt>
      <trkpt lat="48.4994" lon="7.169">
        <ele>646.871</ele>
        <time>2021-01-10T13:58:12Z</time>
      </trkpt>
      <trkpt lat="48.49921" lon="7.16896">
        <ele>643.503</ele>
        <time>2021-01-10T13:58:27Z</time>
      </trkpt>
      <trkpt lat="48.49903" lon="7.16895">
        <ele>639.914</ele>
        <time>2021-01-10T13:58:43Z</time>
      </trkpt>
      <trkpt lat="48.49881" lon="7.1689">
        <ele>636.939</ele>
        <time>2021-01-10T13:58:59Z</time>
      </trkpt>
      <trkpt lat="48.49861" lon="7.16883">
        <ele>634.869</ele>
        <time>2021-01-10T13:59:14Z</time>
      </trkpt>
      <trkpt lat="48.49841" lon="7.16867">
        <ele>632.371</ele>
        <time>2021-01-10T13:59:30Z</time>
      </trkpt>
      <trkpt lat="48.49827" lon="7.16847">
        <ele>632.69</ele>
        <time>2021-01-10T13:59:46Z</time>
      </trkpt>
      <trkpt lat="48.49813" lon="7.16828">
        <ele>631.923</ele>
        <time>2021-01-10T14:00:02Z</time>
      </trkpt>
      <trkpt lat="48.49801" lon="7.16803">
        <ele>632.516</ele>
        <time>2021-01-10T14:00:17Z</time>
      </trkpt>
      <trkpt lat="48.49791" lon="7.16775">
        <ele>632.842</ele>
        <time>2021-01-10T14:00:33Z</time>
      </trkpt>
      <trkpt lat="48.4978" lon="7.16752">
        <ele>631.351</ele>
        <time>2021-01-10T14:00:49Z</time>
      </trkpt>
      <trkpt lat="48.49766" lon="7.16731">
        <ele>628.136</ele>
        <time>2021-01-10T14:01:04Z</time>
      </trkpt>
      <trkpt lat="48.4975" lon="7.16709">
        <ele>624.446</ele>
        <time>2021-01-10T14:01:19Z</time>
      </trkpt>
      <trkpt lat="48.49737" lon="7.16689">
        <ele>621.462</ele>
        <time>2021-01-10T14:01:35Z</time>
      </trkpt>
      <trkpt lat="48.49722" lon="7.16668">
        <ele>617.799</ele>
        <time>2021-01-10T14:01:51Z</time>
      </trkpt>
      <trkpt lat="48.49719" lon="7.16645">
        <ele>618.691</ele>
        <time>2021-01-10T14:02:06Z</time>
      </trkpt>
      <trkpt lat="48.4971" lon="7.1662">
        <ele>617.166</ele>
        <time>2021-01-10T14:02:22Z</time>
      </trkpt>
      <trkpt lat="48.49702" lon="7.16592">
        <ele>615.743</ele>
        <time>2021-01-10T14:02:37Z</time>
      </trkpt>
      <trkpt lat="48.49694" lon="7.16561">
        <ele>614.443</ele>
        <time>2021-01-10T14:02:53Z</time>
      </trkpt>
      <trkpt lat="48.49684" lon="7.16536">
        <ele>610.527</ele>
        <time>2021-01-10T14:03:08Z</time>
      </trkpt>
      <trkpt lat="48.49677" lon="7.16508">
        <ele>608.968</ele>
        <time>2021-01-10T14:03:24Z</time>
      </trkpt>
      <trkpt lat="48.49667" lon="7.16479">
        <ele>605.969</ele>
        <time>2021-01-10T14:03:39Z</time>
      </trkpt>
      <trkpt lat="48.49662" lon="7.16443">
        <ele>604.104</ele>
        <time>2021-01-10T14:03:55Z</time>
      </trkpt>
      <trkpt lat="48.49663" lon="7.16416">
        <ele>603.71</ele>
        <time>2021-01-10T14:04:10Z</time>
      </trkpt>
      <trkpt lat="48.4966" lon="7.16382">
        <ele>602.305</ele>
        <time>2021-01-10T14:04:26Z</time>
      </trkpt>
      <trkpt lat="48.49665" lon="7.16347">
        <ele>602.266</ele>
        <time>2021-01-10T14:04:42Z</time>
      </trkpt>
      <trkpt lat="48.49667" lon="7.16317">
        <ele>601.093</ele>
        <time>2021-01-10T14:04:57Z</time>
      </trkpt>
      <trkpt lat="48.49669" lon="7.16284">
        <ele>599.323</ele>
        <time>2021-01-10T14:05:13Z</time>
      </trkpt>
      <trkpt lat="48.49674" lon="7.16257">
        <ele>599.103</ele>
        <time>2021-01-10T14:05:29Z</time>
      </trkpt>
      <trkpt lat="48.49676" lon="7.1623">
        <ele>597.857</ele>
        <time>2021-01-10T14:05:44Z</time>
      </trkpt>
      <trkpt lat="48.49681" lon="7.16201">
        <ele>596.831</ele>
        <time>2021-01-10T14:06:00Z</time>
      </trkpt>
      <trkpt lat="48.49691" lon="7.16178">
        <ele>598.074</ele>
        <time>2021-01-10T14:06:16Z</time>
      </trkpt>
      <trkpt lat="48.49694" lon="7.16155">
        <ele>596.574</ele>
        <time>2021-01-10T14:06:32Z</time>
      </trkpt>
      <trkpt lat="48.49687" lon="7.16139">
        <ele>592.385</ele>
        <time>2021-01-10T14:06:47Z</time>
      </trkpt>
      <trkpt lat="48.49698" lon="7.16125">
        <ele>593.968</ele>
        <time>2021-01-10T14:07:03Z</time>
      </trkpt>
      <trkpt lat="48.49707" lon="7.16109">
        <ele>593.722</ele>
        <time>2021-01-10T14:07:18Z</time>
      </trkpt>
      <trkpt lat="48.49717" lon="7.16091">
        <ele>593.756</ele>
        <time>2021-01-10T14:07:34Z</time>
      </trkpt>
      <trkpt lat="48.4973" lon="7.16085">
        <ele>595.964</ele>
        <time>2021-01-10T14:07:51Z</time>
      </trkpt>
      <trkpt lat="48.49742" lon="7.1608">
        <ele>597.532</ele>
        <time>2021-01-10T14:08:06Z</time>
      </trkpt>
      <trkpt lat="48.49757" lon="7.16074">
        <ele>599.53</ele>
        <time>2021-01-10T14:08:21Z</time>
      </trkpt>
      <trkpt lat="48.49773" lon="7.16067">
        <ele>600.828</ele>
        <time>2021-01-10T14:08:37Z</time>
      </trkpt>
      <trkpt lat="48.49789" lon="7.16069">
        <ele>603.189</ele>
        <time>2021-01-10T14:08:53Z</time>
      </trkpt>
      <trkpt lat="48.49808" lon="7.16066">
        <ele>605.095</ele>
        <time>2021-01-10T14:09:09Z</time>
      </trkpt>
      <trkpt lat="48.49826" lon="7.16058">
        <ele>605.631</ele>
        <time>2021-01-10T14:09:25Z</time>
      </trkpt>
      <trkpt lat="48.49832" lon="7.1607">
        <ele>608.466</ele>
        <time>2021-01-10T14:12:20Z</time>
      </trkpt>
    </trkseg>
  </trk>
</gpx>